Time;durP1;ratioP1;P1;durP2;ratioP2;P2;SDS_P1;SDS_P2;PMS_P1;PMS_P2;Temp;Humidity;BMP_temperature;BMP_pressure;BME280_temperature;BME280_humidity;BME280_pressure;Samples;Min_cycle;Max_cycle;Signal;HPM_P1;HPM_P2
2021/08/10 04:58:07;;;;;;;11.52;5.75;;;;;;;15.35;71.33;100322.63;5006029;28;105817;-62
2021/08/10 05:00:32;;;;;;;10.73;5.55;;;;;;;15.45;71.71;100317.75;5010496;27;106347;-61
2021/08/10 05:02:58;;;;;;;8.45;5.70;;;;;;;15.59;72.40;100315.13;5005050;28;106291;-62
2021/08/10 05:05:23;;;;;;;13.15;5.80;;;;;;;15.76;72.56;100313.75;5004759;28;117133;-62
2021/08/10 05:07:48;;;;;;;18.02;10.18;;;;;;;15.96;72.43;100321.06;5005123;28;106155;-63
2021/08/10 05:10:14;;;;;;;17.85;12.85;;;;;;;16.15;72.79;100317.59;5002532;28;106426;-62
2021/08/10 05:12:39;;;;;;;17.50;7.90;;;;;;;16.35;72.66;100319.50;5002326;28;106688;-62
2021/08/10 05:15:06;;;;;;;12.80;6.75;;;;;;;16.57;72.77;100318.25;5003598;28;106789;-63
2021/08/10 05:17:31;;;;;;;13.60;7.10;;;;;;;16.79;72.49;100322.63;4986141;28;106732;-63
2021/08/10 05:19:57;;;;;;;11.60;5.93;;;;;;;16.96;72.28;100320.34;4982895;28;106310;-63
2021/08/10 05:22:22;;;;;;;16.45;6.22;;;;;;;17.15;72.01;100327.53;4983381;28;106388;-63
2021/08/10 05:24:48;;;;;;;7.78;5.30;;;;;;;17.36;71.91;100333.69;4983909;28;106116;-62
2021/08/10 05:27:13;;;;;;;9.65;4.60;;;;;;;17.50;71.51;100323.75;4984687;28;106521;-63
2021/08/10 05:29:38;;;;;;;9.75;5.05;;;;;;;17.67;71.38;100318.69;4985720;28;105757;-63
2021/08/10 05:32:04;;;;;;;6.78;4.10;;;;;;;17.86;71.01;100328.53;4984716;28;106230;-62
2021/08/10 05:34:29;;;;;;;9.60;4.47;;;;;;;18.03;70.98;100328.91;4984417;28;106771;-62
2021/08/10 05:36:55;;;;;;;5.78;3.55;;;;;;;18.20;70.45;100340.00;4983202;28;105907;-62
2021/08/10 05:39:20;;;;;;;7.80;2.90;;;;;;;18.36;70.13;100332.44;4985801;28;105950;-63
2021/08/10 05:41:46;;;;;;;6.53;3.00;;;;;;;18.52;69.77;100353.50;4985132;28;106122;-66
2021/08/10 05:44:11;;;;;;;9.85;3.20;;;;;;;18.75;69.77;100362.84;4984441;28;105743;-66
2021/08/10 05:46:36;;;;;;;4.38;2.78;;;;;;;19.03;69.60;100356.22;4985883;28;105946;-70
2021/08/10 05:49:02;;;;;;;6.18;3.00;;;;;;;19.28;69.28;100362.38;4985664;28;106568;-65
2021/08/10 05:51:27;;;;;;;5.75;2.90;;;;;;;19.57;68.75;100345.66;4984784;28;106033;-71
2021/08/10 05:53:53;;;;;;;5.80;2.95;;;;;;;19.79;68.12;100343.31;4984301;28;105955;-63
2021/08/10 05:56:18;;;;;;;4.38;2.95;;;;;;;19.95;67.53;100350.81;4982789;28;106283;-63
2021/08/10 05:58:43;;;;;;;10.45;3.10;;;;;;;20.11;66.98;100345.84;4985150;28;107012;-65
2021/08/10 06:01:09;;;;;;;6.78;3.22;;;;;;;20.21;66.00;100347.97;4984853;28;106002;-64
2021/08/10 06:03:35;;;;;;;6.82;2.83;;;;;;;20.36;65.87;100350.25;4984241;28;106329;-63
2021/08/10 06:06:00;;;;;;;7.93;2.88;;;;;;;20.54;65.63;100347.47;4984063;28;105999;-71
2021/08/10 06:08:27;;;;;;;7.70;4.15;;;;;;;20.74;65.18;100343.66;4977768;28;106306;-72
2021/08/10 06:10:53;;;;;;;6.13;3.40;;;;;;;20.98;64.62;100346.38;4970774;28;106217;-69
2021/08/10 06:13:18;;;;;;;7.40;3.40;;;;;;;21.26;64.50;100343.75;4968641;28;106407;-69
2021/08/10 06:15:43;;;;;;;7.07;3.33;;;;;;;21.52;63.54;100346.22;4969404;28;106196;-70
2021/08/10 06:18:09;;;;;;;7.15;2.85;;;;;;;21.69;62.52;100341.69;4970557;28;106282;-70
2021/08/10 06:20:34;;;;;;;10.57;3.15;;;;;;;21.85;62.21;100339.31;4969847;28;106193;-72
2021/08/10 06:23:01;;;;;;;8.02;2.67;;;;;;;21.98;61.72;100339.84;4969649;28;106462;-72
2021/08/10 06:25:27;;;;;;;5.05;2.53;;;;;;;22.13;61.35;100335.78;4969294;28;106040;-72
2021/08/10 06:27:53;;;;;;;11.32;3.28;;;;;;;22.30;60.40;100339.31;4970750;28;106144;-73
2021/08/10 06:30:19;;;;;;;6.22;2.75;;;;;;;22.53;60.33;100334.03;4969331;28;106198;-71
2021/08/10 06:32:44;;;;;;;8.25;2.83;;;;;;;22.87;59.88;100334.00;4969809;28;105977;-69
2021/08/10 06:35:10;;;;;;;5.07;2.60;;;;;;;23.07;58.73;100323.44;4969890;28;105912;-71
2021/08/10 06:37:35;;;;;;;5.30;2.33;;;;;;;23.09;57.87;100329.44;4970361;28;106679;-70
2021/08/10 06:40:01;;;;;;;5.03;2.58;;;;;;;23.05;57.44;100316.63;4970067;28;106211;-65
2021/08/10 06:42:26;;;;;;;10.23;2.92;;;;;;;23.08;57.33;100318.84;4969431;28;106779;-69
2021/08/10 06:44:52;;;;;;;7.55;2.90;;;;;;;23.10;56.78;100314.81;4969995;28;106393;-69
2021/08/10 06:47:17;;;;;;;6.07;2.67;;;;;;;23.05;56.52;100309.28;4971228;28;106103;-67
2021/08/10 06:49:43;;;;;;;6.78;2.60;;;;;;;23.03;56.54;100307.91;4970631;28;106137;-73
2021/08/10 06:52:10;;;;;;;5.07;3.00;;;;;;;23.05;56.23;100309.28;4968703;28;107866;-75
2021/08/10 06:54:36;;;;;;;6.10;2.67;;;;;;;23.13;56.27;100305.34;4970332;28;105811;-66
2021/08/10 06:57:06;;;;;;;3.58;2.33;;;;;;;23.38;56.19;100312.19;4970736;28;106049;-67
2021/08/10 06:59:32;;;;;;;10.07;2.20;;;;;;;23.71;56.08;100307.69;4969820;28;106192;-64
2021/08/10 07:01:58;;;;;;;7.70;2.60;;;;;;;23.94;55.06;100307.41;4969574;28;106757;-62
2021/08/10 07:04:23;;;;;;;8.27;2.28;;;;;;;24.06;54.20;100315.44;4969959;28;106043;-63
2021/08/10 07:06:48;;;;;;;10.82;2.38;;;;;;;24.23;54.03;100315.31;4970727;28;105981;-64
2021/08/10 07:09:15;;;;;;;5.15;2.17;;;;;;;24.43;53.46;100317.41;4970229;28;105854;-63
2021/08/10 07:11:42;;;;;;;4.03;2.28;;;;;;;24.51;52.55;100313.38;4969910;28;106765;-62
2021/08/10 07:14:11;;;;;;;5.28;2.30;;;;;;;24.71;52.72;100310.00;4969824;28;106104;-67
2021/08/10 07:16:38;;;;;;;4.57;2.20;;;;;;;24.76;51.82;100314.69;4969673;28;106095;-62
2021/08/10 07:19:03;;;;;;;10.07;2.85;;;;;;;24.62;50.86;100317.84;4969598;28;106095;-61
2021/08/10 07:21:29;;;;;;;3.67;1.70;;;;;;;24.57;50.99;100323.22;4968927;28;106440;-61
2021/08/10 07:23:59;;;;;;;3.22;1.70;;;;;;;24.70;51.11;100318.44;4969087;28;114046;-62
2021/08/10 07:26:25;;;;;;;6.28;1.90;;;;;;;24.90;50.88;100321.31;4970434;28;106043;-62
2021/08/10 07:28:52;;;;;;;6.53;2.03;;;;;;;24.97;50.12;100316.47;4969930;28;106106;-62
2021/08/10 07:31:17;;;;;;;7.03;2.45;;;;;;;25.14;50.16;100315.47;4969392;28;105951;-65
2021/08/10 07:33:42;;;;;;;8.50;2.17;;;;;;;25.29;50.02;100323.72;4969076;28;106348;-68
2021/08/10 07:36:08;;;;;;;12.57;2.33;;;;;;;25.62;50.05;100318.97;4969837;28;106363;-67
2021/08/10 07:38:33;;;;;;;5.68;2.00;;;;;;;25.79;48.82;100321.50;4969228;28;106345;-65
2021/08/10 07:40:58;;;;;;;5.70;2.28;;;;;;;25.86;48.43;100313.00;4969170;28;115686;-68
2021/08/10 07:43:24;;;;;;;4.93;2.30;;;;;;;26.07;47.78;100318.56;4969209;28;106098;-68
2021/08/10 07:45:50;;;;;;;7.82;2.42;;;;;;;26.19;47.61;100319.13;4968700;28;105820;-67
2021/08/10 07:48:16;;;;;;;7.45;2.17;;;;;;;26.36;46.60;100313.41;4969428;28;106400;-67
2021/08/10 07:50:41;;;;;;;5.32;1.92;;;;;;;26.42;46.49;100323.25;4969226;28;106540;-67
2021/08/10 07:53:07;;;;;;;6.72;1.83;;;;;;;26.51;46.62;100320.78;4968653;28;105813;-66
2021/08/10 07:55:32;;;;;;;7.25;2.30;;;;;;;26.78;46.53;100312.31;4969915;28;105991;-65
2021/08/10 07:57:58;;;;;;;6.50;2.25;;;;;;;27.04;45.55;100317.72;4969681;28;106213;-66
2021/08/10 08:00:23;;;;;;;6.18;1.98;;;;;;;27.08;45.20;100309.75;4968666;28;105769;-63
2021/08/10 08:02:49;;;;;;;7.63;2.50;;;;;;;27.16;45.11;100309.19;4968943;28;105859;-63
2021/08/10 08:05:14;;;;;;;3.08;1.90;;;;;;;27.26;44.63;100319.31;4969739;28;106346;-63
2021/08/10 08:07:39;;;;;;;5.65;1.85;;;;;;;27.40;44.37;100308.59;4969160;28;106233;-64
2021/08/10 08:10:05;;;;;;;6.63;1.92;;;;;;;27.65;44.19;100322.16;4969024;28;106278;-64
2021/08/10 08:12:31;;;;;;;3.83;2.08;;;;;;;27.75;43.18;100321.28;4968972;28;106131;-66
2021/08/10 08:14:56;;;;;;;4.75;1.65;;;;;;;27.90;43.10;100317.66;4969913;28;106291;-65
2021/08/10 08:17:21;;;;;;;4.95;2.13;;;;;;;27.88;42.79;100322.56;4968874;28;106172;-66
2021/08/10 08:19:47;;;;;;;7.47;2.10;;;;;;;28.06;42.50;100331.25;4968633;28;106621;-64
2021/08/10 08:22:12;;;;;;;2.95;1.60;;;;;;;28.33;42.66;100323.38;4967256;28;105960;-62
2021/08/10 08:24:37;;;;;;;3.88;1.92;;;;;;;28.69;42.12;100334.09;4969857;28;105837;-65
2021/08/10 08:27:03;;;;;;;4.70;1.92;;;;;;;28.82;41.18;100326.28;4969005;28;106148;-68
2021/08/10 08:29:28;;;;;;;7.28;1.95;;;;;;;29.06;40.97;100329.06;4968747;28;108937;-73
2021/08/10 08:31:54;;;;;;;4.10;1.60;;;;;;;29.38;40.50;100327.59;4968170;28;105927;-76
2021/08/10 08:34:19;;;;;;;5.72;2.65;;;;;;;29.40;39.94;100321.81;4969572;28;105903;-73
2021/08/10 08:36:45;;;;;;;6.93;1.73;;;;;;;29.52;39.46;100311.25;4968726;28;106205;-70
2021/08/10 08:39:10;;;;;;;6.88;1.45;;;;;;;29.86;39.20;100313.00;4968496;28;106080;-69
2021/08/10 08:41:35;;;;;;;8.32;1.70;;;;;;;30.16;38.59;100313.66;4967896;28;108867;-73
2021/08/10 08:44:01;;;;;;;3.38;1.40;;;;;;;30.36;38.15;100315.25;4969608;28;106171;-69
2021/08/10 08:46:27;;;;;;;6.80;1.77;;;;;;;30.64;37.61;100318.91;4968445;28;106224;-64
2021/08/10 08:48:55;;;;;;;5.72;1.90;;;;;;;30.84;36.96;100312.22;4967013;28;107591;-63
2021/08/10 08:51:25;;;;;;;5.55;1.67;;;;;;;31.18;36.66;100308.31;4968102;28;106185;-66
2021/08/10 08:53:54;;;;;;;7.88;1.85;;;;;;;31.58;36.41;100316.00;4969290;28;106053;-67
2021/08/10 08:56:21;;;;;;;19.53;2.30;;;;;;;31.88;35.38;100319.22;4968049;28;106026;-68
2021/08/10 08:58:46;;;;;;;4.97;1.70;;;;;;;32.12;35.05;100315.34;4968431;28;106019;-66
2021/08/10 09:01:13;;;;;;;7.07;1.80;;;;;;;32.49;34.37;100307.84;4968359;28;106060;-68
2021/08/10 09:03:38;;;;;;;7.40;1.70;;;;;;;32.99;33.47;100309.59;4968814;28;106105;-65
2021/08/10 09:06:03;;;;;;;8.13;1.77;;;;;;;33.34;32.79;100309.72;4968445;28;106191;-65
2021/08/10 09:08:30;;;;;;;6.35;1.60;;;;;;;34.11;31.91;100303.81;4967514;28;106417;-66
2021/08/10 09:11:04;;;;;;;4.57;1.50;;;;;;;35.05;30.66;100314.16;4967280;28;105927;-65
2021/08/10 09:13:30;;;;;;;4.78;1.92;;;;;;;35.79;29.28;100303.59;4968582;28;106189;-67
2021/08/10 09:16:04;;;;;;;5.93;1.70;;;;;;;36.36;27.85;100304.94;4967857;28;106320;-65
2021/08/10 09:18:30;;;;;;;3.45;1.55;;;;;;;36.55;27.17;100298.84;4967948;28;105740;-66
2021/08/10 09:21:09;;;;;;;4.35;1.63;;;;;;;36.52;27.03;100301.50;4967925;28;105820;-66
2021/08/10 09:23:35;;;;;;;4.20;1.40;;;;;;;36.13;26.93;100296.16;4968032;28;106115;-68
2021/08/10 09:26:01;;;;;;;5.53;1.20;;;;;;;35.34;26.86;100302.28;4968079;28;106168;-67
2021/08/10 09:28:32;;;;;;;7.63;1.63;;;;;;;34.70;27.63;100292.94;4967145;28;107337;-68
2021/08/10 09:31:21;;;;;;;3.42;1.35;;;;;;;34.18;27.56;100288.31;4967280;28;106021;-67
2021/08/10 09:33:47;;;;;;;2.83;1.30;;;;;;;34.22;27.33;100283.78;4953272;28;106381;-67
2021/08/10 09:36:19;;;;;;;3.65;1.40;;;;;;;34.43;27.25;100287.84;4967365;28;106127;-66
2021/08/10 09:38:48;;;;;;;3.00;1.23;;;;;;;34.39;26.83;100284.91;4967272;28;105994;-65
2021/08/10 09:41:17;;;;;;;4.68;1.50;;;;;;;34.30;26.93;100284.94;4967478;28;105876;-67
2021/08/10 09:43:43;;;;;;;1.48;1.13;;;;;;;34.07;27.15;100282.31;4967833;28;106189;-64
2021/08/10 09:46:16;;;;;;;2.28;1.20;;;;;;;34.19;26.83;100273.38;4970770;28;106281;-66
2021/08/10 09:48:52;;;;;;;3.70;1.40;;;;;;;34.32;26.58;100277.09;4970840;28;106725;-64
2021/08/10 09:51:22;;;;;;;2.83;1.10;;;;;;;34.38;26.59;100261.97;4969250;28;106126;-66
2021/08/10 09:53:57;;;;;;;4.35;1.30;;;;;;;34.62;26.29;100266.13;4971353;28;105913;-67
2021/08/10 09:56:36;;;;;;;3.53;1.67;;;;;;;34.82;25.88;100261.03;4968838;28;106398;-66
2021/08/10 09:59:02;;;;;;;3.13;1.13;;;;;;;34.58;24.89;100256.88;4970575;28;105896;-74
2021/08/10 10:01:36;;;;;;;3.67;1.10;;;;;;;34.15;25.10;100249.50;4970665;28;105883;-73
2021/08/10 10:04:21;;;;;;;2.42;1.17;;;;;;;34.37;24.68;100245.72;4970812;28;105899;-69
2021/08/10 10:06:52;;;;;;;2.08;1.10;;;;;;;34.75;23.77;100242.97;4970342;28;106273;-70
2021/08/10 10:09:18;;;;;;;2.75;1.05;;;;;;;34.97;23.73;100237.53;4970301;28;106441;-72
2021/08/10 10:11:45;;;;;;;5.05;1.33;;;;;;;34.93;22.68;100248.44;4969997;28;105986;-73
2021/08/10 10:14:12;;;;;;;2.03;0.90;;;;;;;34.66;23.38;100241.38;4970937;28;105879;-72
2021/08/10 10:16:40;;;;;;;2.03;1.27;;;;;;;34.46;22.83;100243.75;4970351;28;106183;-75
2021/08/10 10:19:10;;;;;;;3.45;1.70;;;;;;;34.08;23.43;100227.88;4970476;28;105957;-74
2021/08/10 10:21:37;;;;;;;3.33;1.30;;;;;;;33.80;24.19;100222.72;4969540;28;106336;-75
2021/08/10 10:24:04;;;;;;;4.32;1.20;;;;;;;34.07;23.83;100221.53;4971022;28;106319;-75
2021/08/10 10:26:31;;;;;;;4.38;1.10;;;;;;;34.15;23.83;100219.09;4969938;28;106208;-73
2021/08/10 10:28:58;;;;;;;2.60;1.20;;;;;;;33.99;23.85;100216.81;4970030;28;105998;-72
2021/08/10 10:31:23;;;;;;;4.53;0.90;;;;;;;34.10;23.78;100208.19;4969969;28;106500;-70
2021/08/10 10:33:51;;;;;;;3.65;1.20;;;;;;;34.38;23.04;100212.22;4970395;28;105987;-72
2021/08/10 10:36:16;;;;;;;3.20;1.10;;;;;;;34.47;23.20;100206.63;4969741;28;106166;-70
2021/08/10 10:38:43;;;;;;;2.47;0.90;;;;;;;34.46;22.90;100204.19;4970001;28;105914;-69
2021/08/10 10:41:10;;;;;;;2.75;1.00;;;;;;;34.81;22.34;100198.50;4969383;28;106022;-69
2021/08/10 10:43:36;;;;;;;2.05;1.10;;;;;;;34.71;22.42;100200.50;4970406;28;105996;-69
2021/08/10 10:46:24;;;;;;;3.92;1.25;;;;;;;34.52;22.89;100205.66;4969588;28;105979;-68
2021/08/10 10:48:49;;;;;;;14.77;2.15;;;;;;;34.81;22.48;100202.09;4968604;28;106518;-71
2021/08/10 10:51:22;;;;;;;2.13;1.10;;;;;;;35.02;22.66;100193.84;4969680;28;106298;-74
2021/08/10 10:53:48;;;;;;;2.22;1.00;;;;;;;35.01;22.45;100196.97;4970595;28;106230;-72
2021/08/10 10:56:25;;;;;;;2.28;1.33;;;;;;;34.79;22.55;100211.84;4969005;28;106235;-64
2021/08/10 10:58:52;;;;;;;2.60;1.00;;;;;;;34.50;22.62;100194.94;4966776;28;106180;-68
2021/08/10 11:01:22;;;;;;;4.32;1.30;;;;;;;34.80;22.63;100192.16;4969291;28;106324;-65
2021/08/10 11:04:06;;;;;;;1.73;1.00;;;;;;;35.35;22.48;100186.78;4969196;28;106048;-66
2021/08/10 11:06:35;;;;;;;2.15;1.10;;;;;;;35.75;21.81;100180.75;4967602;28;106305;-66
2021/08/10 11:09:02;;;;;;;;;;;;;;;35.53;21.73;100176.41;4968188;28;107316;-66
2021/08/10 11:11:50;;;;;;;2.38;1.10;;;;;;;35.08;21.78;100162.06;4969637;28;106088;-70
2021/08/10 11:14:37;;;;;;;2.28;1.38;;;;;;;34.67;21.90;100154.50;4970185;28;106028;-69
2021/08/10 11:17:11;;;;;;;3.50;1.50;;;;;;;34.33;21.96;100146.03;4972709;28;106718;-68
2021/08/10 11:19:42;;;;;;;2.88;1.40;;;;;;;34.08;22.36;100147.72;4973894;28;106283;-69
2021/08/10 11:22:17;;;;;;;3.33;1.30;;;;;;;33.47;22.80;100158.88;4969056;28;106183;-72
2021/08/10 11:24:51;;;;;;;2.65;1.30;;;;;;;32.72;23.53;100145.94;4969609;28;105842;-66
2021/08/10 11:27:44;;;;;;;3.90;1.42;;;;;;;32.54;24.02;100147.81;4969129;28;106053;-65
2021/08/10 11:30:21;;;;;;;4.35;1.40;;;;;;;32.05;24.38;100140.31;4969373;28;105981;-66
2021/08/10 11:32:48;;;;;;;2.38;1.20;;;;;;;31.97;24.81;100138.28;4968658;28;106514;-65
2021/08/10 11:35:34;;;;;;;3.65;1.40;;;;;;;32.26;24.86;100139.78;4969899;28;106095;-66
2021/08/10 11:38:20;;;;;;;2.47;1.40;;;;;;;32.43;24.48;100143.72;4968967;28;106311;-67
2021/08/10 11:40:54;;;;;;;3.72;1.45;;;;;;;32.54;24.72;100134.03;4968331;28;106750;-67
2021/08/10 11:43:33;;;;;;;3.92;1.40;;;;;;;32.45;24.81;100128.50;4969067;28;105846;-69
2021/08/10 11:45:59;;;;;;;;;;;;;;;32.17;25.03;100130.66;4969924;28;105997;-68
2021/08/10 11:48:24;;;;;;;5.93;1.40;;;;;;;32.00;25.43;100123.06;4969345;28;106137;-69
2021/08/10 11:50:50;;;;;;;3.03;1.42;;;;;;;32.06;25.47;100103.34;4968624;28;111278;-69
2021/08/10 11:53:28;;;;;;;4.60;1.20;;;;;;;31.93;25.92;100101.47;4968995;28;105861;-73
2021/08/10 11:55:54;;;;;;;3.27;1.37;;;;;;;32.06;25.97;100088.75;4968700;28;106077;-70
2021/08/10 11:58:19;;;;;;;2.42;1.23;;;;;;;32.53;25.36;100082.75;4969166;28;105775;-66
2021/08/10 12:00:46;;;;;;;2.50;1.63;;;;;;;32.58;25.71;100074.34;4969027;28;106763;-70
2021/08/10 12:03:11;;;;;;;3.30;1.27;;;;;;;32.69;25.58;100066.59;4968559;28;106218;-70
2021/08/10 12:05:36;;;;;;;7.45;1.50;;;;;;;32.90;25.27;100066.78;4968747;28;106064;-64
2021/08/10 12:08:04;;;;;;;3.05;1.52;;;;;;;32.68;25.20;100057.50;4968437;28;106324;-64
2021/08/10 12:10:35;;;;;;;2.72;1.30;;;;;;;31.99;25.76;100056.16;4968288;28;106124;-65
2021/08/10 12:13:16;;;;;;;7.00;1.50;;;;;;;31.64;26.18;100047.72;4968253;28;106401;-65
2021/08/10 12:15:45;;;;;;;4.75;1.40;;;;;;;31.50;26.60;100055.22;4968179;28;105951;-65
2021/08/10 12:18:12;;;;;;;4.28;1.25;;;;;;;31.57;26.77;100047.34;4967307;28;106350;-66
2021/08/10 12:20:38;;;;;;;2.45;1.30;;;;;;;31.83;27.04;100053.00;4968091;28;105990;-66
2021/08/10 12:23:06;;;;;;;5.63;1.17;;;;;;;32.18;26.49;100044.91;4968569;28;106106;-64
2021/08/10 12:25:31;;;;;;;3.80;1.13;;;;;;;32.01;26.18;100040.13;4969291;28;106239;-64
2021/08/10 12:28:08;;;;;;;3.33;1.20;;;;;;;31.48;26.56;100044.53;4968565;28;106171;-66
2021/08/10 12:30:36;;;;;;;5.00;1.40;;;;;;;31.28;27.06;100045.06;4968046;28;106571;-65
2021/08/10 12:33:22;;;;;;;2.60;1.40;;;;;;;31.10;27.39;100046.84;4966947;28;106261;-68
2021/08/10 12:36:06;;;;;;;3.38;1.15;;;;;;;30.95;27.23;100042.50;4968794;28;106008;-68
2021/08/10 12:38:34;;;;;;;2.85;1.23;;;;;;;30.65;27.82;100044.84;4967849;28;106151;-67
2021/08/10 12:41:00;;;;;;;2.40;1.35;;;;;;;30.35;28.29;100031.41;4967206;28;107081;-70
2021/08/10 12:43:26;;;;;;;1.25;1.00;;;;;;;30.53;28.27;100032.41;4967500;28;105860;-69
2021/08/10 12:45:52;;;;;;;1.73;1.20;;;;;;;30.82;27.84;100016.69;4968119;28;106400;-69
2021/08/10 12:48:29;;;;;;;2.72;0.98;;;;;;;30.94;27.50;100007.88;4967137;28;106344;-69
2021/08/10 12:51:01;;;;;;;3.53;1.40;;;;;;;31.10;26.95;100000.09;4967306;28;106906;-70
2021/08/10 12:53:31;;;;;;;3.50;1.23;;;;;;;30.53;27.03;100013.19;4965330;28;106157;-67
2021/08/10 12:55:59;;;;;;;1.60;1.15;;;;;;;30.01;27.33;100009.88;4968407;28;106243;-68
2021/08/10 12:58:25;;;;;;;4.28;1.40;;;;;;;29.75;28.18;100007.59;4967344;28;106271;-68
2021/08/10 13:01:16;;;;;;;3.28;1.00;;;;;;;29.51;28.15;99996.75;4967688;28;105879;-69
2021/08/10 13:03:42;;;;;;;4.55;1.33;;;;;;;29.25;28.80;99996.41;4962211;28;106662;-69
2021/08/10 13:06:22;;;;;;;4.65;1.40;;;;;;;29.11;29.08;100001.81;4968735;28;105876;-68
2021/08/10 13:08:55;;;;;;;4.40;1.55;;;;;;;28.90;29.65;100002.16;4968144;28;106060;-67
2021/08/10 13:11:21;;;;;;;2.90;1.20;;;;;;;28.76;30.29;99995.78;4967948;28;105779;-68
2021/08/10 13:13:48;;;;;;;3.63;1.35;;;;;;;28.60;30.92;100001.44;4967461;28;105876;-68
2021/08/10 13:16:32;;;;;;;2.55;1.30;;;;;;;28.54;30.96;99997.13;4968916;28;105965;-68
2021/08/10 13:19:25;;;;;;;3.17;1.40;;;;;;;28.64;30.99;99997.03;4970303;28;106048;-68
2021/08/10 13:21:52;;;;;;;4.50;1.63;;;;;;;29.01;30.42;99989.91;4971250;28;106603;-67
2021/08/10 13:24:23;;;;;;;5.05;1.35;;;;;;;29.49;29.59;99986.09;4970274;28;106064;-65
2021/08/10 13:26:52;;;;;;;7.30;1.45;;;;;;;29.68;29.38;99979.72;4969972;28;106541;-67
2021/08/10 13:29:18;;;;;;;2.00;1.40;;;;;;;29.67;29.59;99989.06;4966411;28;106366;-67
2021/08/10 13:31:54;;;;;;;3.15;1.45;;;;;;;29.50;29.61;99984.19;4970570;28;105906;-67
2021/08/10 13:34:39;;;;;;;4.13;1.55;;;;;;;29.44;30.22;99982.63;4971221;28;106511;-66
2021/08/10 13:37:04;;;;;;;2.70;1.40;;;;;;;29.36;30.18;99984.97;4970054;28;106365;-65
2021/08/10 13:39:29;;;;;;;4.72;1.40;;;;;;;29.27;29.85;99980.47;4970530;28;107040;-65
2021/08/10 13:41:55;;;;;;;5.25;1.52;;;;;;;29.49;30.07;99971.56;4970936;28;109593;-64
2021/08/10 13:44:20;;;;;;;3.08;1.48;;;;;;;29.56;29.53;99963.75;4970450;28;107049;-66
2021/08/10 13:46:47;;;;;;;4.00;1.45;;;;;;;29.38;30.03;99963.50;4970676;28;105949;-65
2021/08/10 13:49:13;;;;;;;3.92;1.50;;;;;;;29.31;30.16;99970.53;4970914;28;106136;-65
2021/08/10 13:51:40;;;;;;;5.75;1.50;;;;;;;29.28;30.09;99966.47;4969218;28;106008;-66
2021/08/10 13:54:07;;;;;;;2.97;1.50;;;;;;;29.07;30.10;99970.63;4970997;28;106060;-64
2021/08/10 13:56:32;;;;;;;2.45;1.40;;;;;;;29.02;30.70;99957.81;4971164;28;106213;-65
2021/08/10 13:58:58;;;;;;;6.10;1.50;;;;;;;29.04;30.76;99967.34;4971087;28;106217;-64
2021/08/10 14:03:58;;;;;;;4.18;1.50;;;;;;;28.74;31.69;99990.59;4967655;28;106394;-65
2021/08/10 14:06:23;;;;;;;3.92;1.42;;;;;;;28.53;31.86;99998.28;4971694;28;105868;-67
2021/08/10 14:08:49;;;;;;;4.20;1.95;;;;;;;28.29;31.97;100033.91;4971130;28;105862;-69
2021/08/10 14:11:15;;;;;;;13.15;1.65;;;;;;;27.96;32.85;100036.47;4969985;28;106801;-67
2021/08/10 14:13:40;;;;;;;14.00;3.38;;;;;;;27.34;34.64;100032.34;4969023;28;106355;-68
2021/08/10 14:16:06;;;;;;;9.80;1.98;;;;;;;27.04;35.68;100047.09;4968864;28;105902;-67
2021/08/10 14:18:31;;;;;;;13.60;1.80;;;;;;;26.78;36.56;100051.91;4968615;28;106315;-67
2021/08/10 14:20:57;;;;;;;5.97;1.70;;;;;;;26.58;37.29;100048.13;4968245;28;106810;-66
2021/08/10 14:23:22;;;;;;;7.70;2.00;;;;;;;26.37;37.94;100046.59;4967421;28;106036;-67
2021/08/10 14:25:47;;;;;;;6.57;1.80;;;;;;;26.34;38.13;100050.69;4969152;28;106342;-67
2021/08/10 14:28:13;;;;;;;9.68;2.05;;;;;;;26.26;38.82;100052.09;4967923;28;106952;-67
2021/08/10 14:30:38;;;;;;;8.00;1.98;;;;;;;26.21;39.08;100054.84;4967931;28;106618;-67
2021/08/10 14:33:03;;;;;;;5.43;1.70;;;;;;;26.07;39.32;100056.53;4967770;28;106403;-67
2021/08/10 14:35:29;;;;;;;3.55;1.65;;;;;;;25.94;39.96;100066.06;4969047;28;106051;-70
